Time;durP1;ratioP1;P1;durP2;ratioP2;P2;SDS_P1;SDS_P2;PMS_P1;PMS_P2;Temp;Humidity;BMP_temperature;BMP_pressure;BME280_temperature;BME280_humidity;BME280_pressure;Samples;Min_cycle;Max_cycle;Signal;HPM_P1;HPM_P2
2021/06/02 00:00:40;;;;;;;9.20;4.80;;;;;;;10.63;88.92;100302.67;1754323;80;21342;-61
2021/06/02 00:03:47;;;;;;;8.50;4.90;;;;;;;10.67;89.07;100297.19;1769368;81;21358;-62
2021/06/02 00:06:53;;;;;;;9.90;5.03;;;;;;;10.71;89.11;100308.11;1769456;81;21851;-61
2021/06/02 00:10:01;;;;;;;7.17;5.33;;;;;;;10.75;89.05;100307.56;1769018;81;21228;-60
2021/06/02 00:13:10;;;;;;;6.95;5.22;;;;;;;10.79;88.94;100291.64;1769002;81;21768;-59
2021/06/02 00:16:16;;;;;;;6.28;4.37;;;;;;;10.83;88.91;100297.94;1769167;81;21728;-59
2021/06/02 00:19:24;;;;;;;5.87;4.65;;;;;;;10.90;88.96;100298.08;1769216;81;21169;-59
2021/06/02 00:22:29;;;;;;;7.40;4.83;;;;;;;10.97;88.78;100292.23;1769248;81;21358;-60
2021/06/02 00:25:35;;;;;;;6.17;5.00;;;;;;;10.96;88.45;100294.62;1769498;81;21180;-59
2021/06/02 00:28:41;;;;;;;6.67;4.90;;;;;;;10.94;88.50;100290.69;1759495;81;21388;-58
2021/06/02 00:31:49;;;;;;;7.10;4.65;;;;;;;10.97;88.40;100294.97;1759257;81;21349;-62
2021/06/02 00:34:57;;;;;;;7.55;5.25;;;;;;;10.96;88.35;100301.46;1759158;81;21358;-61
2021/06/02 00:38:02;;;;;;;7.05;5.15;;;;;;;10.90;88.20;100302.19;1759038;81;21326;-58
2021/06/02 00:41:10;;;;;;;6.55;5.00;;;;;;;10.89;88.44;100297.76;1759055;81;21290;-63
2021/06/02 00:44:21;;;;;;;8.30;5.45;;;;;;;10.91;88.60;100303.91;1759020;81;21384;-62
2021/06/02 00:47:27;;;;;;;6.90;5.35;;;;;;;10.91;88.57;100292.96;1759143;81;21176;-63
2021/06/02 00:50:33;;;;;;;8.35;4.70;;;;;;;10.92;88.74;100296.02;1759181;81;21227;-58
2021/06/02 00:53:38;;;;;;;8.00;5.50;;;;;;;10.96;88.84;100287.77;1759144;81;21310;-59
2021/06/02 00:56:47;;;;;;;7.17;5.58;;;;;;;10.94;88.82;100295.34;1759032;81;21334;-59
2021/06/02 01:00:04;;;;;;;7.33;5.70;;;;;;;10.92;89.02;100305.61;1759018;81;21350;-62
2021/06/02 01:03:13;;;;;;;9.03;5.58;;;;;;;10.93;89.19;100291.73;1759091;81;21432;-61
2021/06/02 01:06:20;;;;;;;6.72;5.08;;;;;;;10.94;89.19;100289.86;1759051;81;21382;-60
2021/06/02 01:09:29;;;;;;;8.35;5.75;;;;;;;10.92;89.38;100294.15;1759083;81;21195;-62
2021/06/02 01:12:36;;;;;;;8.15;5.28;;;;;;;10.92;89.51;100300.12;1759227;81;21219;-60
2021/06/02 01:15:41;;;;;;;6.67;5.50;;;;;;;10.96;89.69;100305.57;1759230;81;21342;-60
2021/06/02 01:18:48;;;;;;;8.65;5.92;;;;;;;11.01;89.55;100314.10;1759286;81;21322;-60
2021/06/02 01:22:06;;;;;;;7.92;5.62;;;;;;;11.03;89.47;100312.91;1759166;81;21204;-61
2021/06/02 01:25:19;;;;;;;7.08;5.58;;;;;;;11.00;89.26;100306.42;1759217;81;21188;-61
2021/06/02 01:28:25;;;;;;;7.83;5.77;;;;;;;10.94;89.19;100304.92;1763362;81;21231;-60
2021/06/02 01:32:21;;;;;;;7.22;5.50;;;;;;;10.89;89.52;100310.08;1769817;81;21418;-61
2021/06/02 01:36:09;;;;;;;10.25;5.50;;;;;;;10.94;89.77;100306.29;1769672;81;21429;-60
2021/06/02 01:39:38;;;;;;;10.65;5.75;;;;;;;11.01;89.75;100305.37;1769814;81;21370;-59
2021/06/02 01:43:15;;;;;;;7.28;5.12;;;;;;;11.04;89.58;100300.05;1769726;81;21334;-60
2021/06/02 01:47:15;;;;;;;11.08;6.62;;;;;;;11.03;89.49;100298.35;1769700;81;21378;-61
2021/06/02 02:01:37;;;;;;;;;;;;;;;11.21;89.46;100307.98;1684683;82;21216;-58
2021/06/02 02:05:11;;;;;;;7.65;5.45;;;;;;;11.25;89.32;100312.08;1691564;84;20215;-57
2021/06/02 02:08:51;;;;;;;7.97;5.83;;;;;;;11.30;89.31;100304.67;1706311;83;21358;-59
2021/06/02 02:11:57;;;;;;;8.18;5.83;;;;;;;11.33;88.98;100286.50;1706343;83;21430;-59
2021/06/02 02:15:45;;;;;;;6.72;5.50;;;;;;;11.29;88.63;100283.26;1689527;84;21224;-57
2021/06/02 02:19:21;;;;;;;11.18;5.25;;;;;;;11.28;88.73;100286.19;1705796;84;21327;-54
2021/06/02 02:23:03;;;;;;;7.85;5.20;;;;;;;11.33;88.73;100296.09;1706007;83;21347;-57
2021/06/02 02:26:38;;;;;;;9.60;5.95;;;;;;;11.38;88.58;100289.03;1706183;83;21415;-56
2021/06/02 02:30:05;;;;;;;12.93;6.03;;;;;;;11.31;88.27;100286.67;1706786;83;21438;-56
2021/06/02 02:33:29;;;;;;;10.20;6.37;;;;;;;11.36;88.41;100298.45;1705777;84;21390;-55
2021/06/02 02:36:47;;;;;;;10.00;5.40;;;;;;;11.40;88.39;100295.16;1706261;83;21201;-55
2021/06/02 02:40:18;;;;;;;7.62;5.50;;;;;;;11.43;88.31;100286.57;1705885;83;21352;-57
2021/06/02 02:44:04;;;;;;;7.83;5.47;;;;;;;11.41;88.30;100291.41;1706024;83;21256;-58
2021/06/02 02:47:42;;;;;;;8.18;5.47;;;;;;;11.42;88.11;100294.47;1706346;83;21336;-55
2021/06/02 02:51:26;;;;;;;9.73;5.40;;;;;;;11.42;88.08;100291.73;1706816;83;21902;-58
2021/06/02 02:54:37;;;;;;;;;;;;;;;11.42;88.10;100285.38;1696365;83;21304;-55
2021/06/02 02:58:08;;;;;;;9.23;5.75;;;;;;;11.51;88.32;100299.38;1706378;83;20341;-56
2021/06/02 03:01:36;;;;;;;8.88;5.40;;;;;;;11.57;88.30;100294.02;1709717;81;21425;-58
2021/06/02 03:04:51;;;;;;;10.80;5.80;;;;;;;11.60;88.05;100299.13;1713299;84;21224;-56
2021/06/02 03:08:02;;;;;;;7.83;5.08;;;;;;;11.67;88.09;100299.28;1713377;84;21323;-60
2021/06/02 03:11:21;;;;;;;9.33;5.50;;;;;;;11.76;88.02;100303.14;1713771;82;21728;-59
2021/06/02 03:15:04;;;;;;;10.30;5.90;;;;;;;11.79;87.71;100308.76;1711622;83;21350;-58
2021/06/02 03:18:27;;;;;;;6.95;4.97;;;;;;;11.81;87.40;100302.03;1713314;84;21350;-59
2021/06/02 03:22:04;;;;;;;7.22;4.15;;;;;;;11.84;87.20;100306.31;1713294;84;21285;-60
2021/06/02 03:25:23;;;;;;;7.65;5.00;;;;;;;11.77;86.71;100295.23;1714122;82;21247;-61
2021/06/02 03:29:03;;;;;;;9.35;5.10;;;;;;;11.76;86.79;100299.02;1713464;84;21338;-62
2021/06/02 03:32:19;;;;;;;7.60;5.40;;;;;;;11.79;86.76;100301.90;1714239;82;21949;-58
2021/06/02 03:35:38;;;;;;;7.83;5.00;;;;;;;11.79;86.60;100289.05;1713677;82;21370;-59
2021/06/02 03:39:05;;;;;;;7.28;5.08;;;;;;;11.82;86.43;100292.79;1713288;84;21334;-62
2021/06/02 03:42:44;;;;;;;9.88;5.83;;;;;;;11.78;86.24;100294.72;1705358;84;21355;-62
2021/06/02 03:46:05;;;;;;;11.97;5.20;;;;;;;11.80;86.42;100294.00;1713625;83;21425;-57
2021/06/02 03:49:43;;;;;;;8.05;5.28;;;;;;;11.87;86.53;100297.71;1713397;84;21429;-61
2021/06/02 03:52:57;;;;;;;8.40;5.70;;;;;;;11.90;86.32;100299.57;1713427;84;21673;-63
2021/06/02 03:56:37;;;;;;;8.85;5.35;;;;;;;11.93;86.17;100299.70;1714392;82;21333;-61
2021/06/02 04:00:09;;;;;;;9.83;5.55;;;;;;;11.92;85.97;100293.36;1713443;84;21346;-59
2021/06/02 04:03:29;;;;;;;8.03;4.35;;;;;;;11.86;85.90;100288.63;1715779;79;21362;-61
2021/06/02 04:07:01;;;;;;;7.65;4.90;;;;;;;11.90;86.15;100291.85;1711349;84;21374;-59
2021/06/02 04:10:21;;;;;;;9.68;5.12;;;;;;;11.86;86.28;100287.25;1714131;82;21425;-61
2021/06/02 04:13:59;;;;;;;10.32;5.60;;;;;;;11.82;86.28;100284.56;1713213;82;21208;-60
2021/06/02 04:17:05;;;;;;;9.43;4.58;;;;;;;11.80;86.41;100285.26;1713193;82;21212;-60
2021/06/02 04:20:12;;;;;;;8.55;4.90;;;;;;;11.82;86.60;100280.95;1712470;84;21231;-58
2021/06/02 04:23:19;;;;;;;6.80;5.12;;;;;;;11.77;86.64;100280.15;1715172;82;21342;-62
2021/06/02 04:26:25;;;;;;;10.95;5.95;;;;;;;11.73;86.73;100291.14;1712983;84;21208;-59
2021/06/02 04:29:30;;;;;;;8.63;5.42;;;;;;;11.74;86.99;100289.26;1713726;82;21374;-58
2021/06/02 04:32:35;;;;;;;10.05;4.95;;;;;;;11.73;87.17;100292.51;1715177;82;21283;-60
2021/06/02 04:35:40;;;;;;;6.87;4.35;;;;;;;11.76;87.28;100292.67;1713899;83;21248;-61
2021/06/02 04:38:46;;;;;;;9.38;5.55;;;;;;;11.82;87.38;100304.27;1713841;82;21378;-59
2021/06/02 04:41:51;;;;;;;7.65;5.17;;;;;;;11.86;87.41;100300.96;1713471;82;21346;-60
2021/06/02 04:44:57;;;;;;;8.03;4.75;;;;;;;11.88;87.30;100304.38;1712380;82;21256;-60
2021/06/02 04:48:04;;;;;;;9.20;4.15;;;;;;;11.90;87.37;100306.94;1712645;82;21176;-58
2021/06/02 04:52:04;;;;;;;7.33;4.42;;;;;;;11.96;87.30;100300.70;1691782;82;21197;-60
2021/06/02 04:55:22;;;;;;;10.00;5.15;;;;;;;11.90;87.08;100304.20;1689038;82;21791;-63
2021/06/02 04:58:43;;;;;;;7.60;4.87;;;;;;;11.86;87.15;100301.50;1697610;82;21521;-58
2021/06/02 05:02:04;;;;;;;9.13;4.72;;;;;;;11.84;87.31;100309.05;1712738;82;21721;-59
2021/06/02 05:05:27;;;;;;;12.05;4.72;;;;;;;11.82;87.62;100309.75;1718695;82;21788;-59
2021/06/02 05:09:11;;;;;;;6.55;4.53;;;;;;;11.79;87.90;100301.90;1712583;82;21215;-61
2021/06/02 05:12:47;;;;;;;9.20;5.42;;;;;;;11.83;87.98;100294.99;1696663;82;21839;-59
2021/06/02 05:16:42;;;;;;;8.85;4.80;;;;;;;11.83;88.00;100294.99;1713413;83;21208;-59
2021/06/02 05:20:06;;;;;;;8.35;5.60;;;;;;;11.85;88.20;100295.66;1712141;82;21791;-58
2021/06/02 05:23:57;;;;;;;5.45;4.28;;;;;;;11.94;88.20;100299.52;1683922;83;21709;-56
2021/06/02 05:27:51;;;;;;;4.85;3.50;;;;;;;11.98;88.05;100298.63;1692191;83;21184;-59
2021/06/02 05:31:27;;;;;;;8.85;4.60;;;;;;;12.02;87.91;100306.30;1692340;83;21367;-57
2021/06/02 05:35:01;;;;;;;6.45;4.70;;;;;;;12.06;87.72;100310.89;1719444;82;21195;-58
2021/06/02 05:38:42;;;;;;;7.95;4.67;;;;;;;12.12;87.50;100311.52;1722537;82;21353;-60
2021/06/02 05:42:03;;;;;;;8.90;4.50;;;;;;;12.13;87.14;100295.91;1717832;82;21157;-59
2021/06/02 05:45:46;;;;;;;7.90;4.50;;;;;;;12.15;87.10;100304.27;1728977;82;21372;-58
2021/06/02 05:49:32;;;;;;;6.15;4.37;;;;;;;12.19;86.86;100312.48;1707613;82;21189;-58
2021/06/02 05:53:23;;;;;;;6.85;4.75;;;;;;;12.19;86.75;100301.50;1707018;84;21346;-59
2021/06/02 05:57:07;;;;;;;8.78;4.50;;;;;;;12.21;86.37;100304.06;1712626;84;21200;-59
2021/06/02 06:01:04;;;;;;;8.28;4.03;;;;;;;12.24;86.33;100305.88;1708582;82;21781;-57
2021/06/02 06:04:46;;;;;;;7.50;3.40;;;;;;;12.30;86.05;100295.55;1685705;82;21276;-59
2021/06/02 06:08:37;;;;;;;8.88;4.22;;;;;;;12.34;85.80;100306.46;1679085;85;21247;-59
2021/06/02 06:11:55;;;;;;;7.37;4.00;;;;;;;12.39;85.27;100305.37;1681896;84;21195;-58
2021/06/02 06:15:31;;;;;;;9.68;4.28;;;;;;;12.38;84.98;100300.94;1717733;82;21219;-59
2021/06/02 06:19:08;;;;;;;8.25;4.30;;;;;;;12.41;84.89;100299.70;1710918;83;21172;-61
2021/06/02 06:22:45;;;;;;;8.28;3.98;;;;;;;12.42;84.65;100298.13;1691463;84;21199;-59
2021/06/02 06:26:03;;;;;;;7.10;3.87;;;;;;;12.43;84.58;100308.06;1724162;81;21181;-57
2021/06/02 06:29:27;;;;;;;8.43;3.67;;;;;;;12.47;84.71;100303.91;1715905;83;21280;-58
2021/06/02 06:32:34;;;;;;;7.78;4.37;;;;;;;12.52;84.62;100306.95;1717614;83;21205;-60
2021/06/02 06:35:42;;;;;;;8.35;4.00;;;;;;;12.51;84.37;100308.51;1740561;82;21382;-63
2021/06/02 06:39:15;;;;;;;8.85;4.50;;;;;;;12.53;84.53;100297.66;1731991;81;21264;-63
2021/06/02 06:42:24;;;;;;;6.47;4.55;;;;;;;12.57;84.65;100305.00;1717072;83;21344;-62
2021/06/02 06:45:38;;;;;;;7.20;4.28;;;;;;;12.63;84.64;100298.22;1717053;83;21359;-62
2021/06/02 06:48:43;;;;;;;5.62;4.40;;;;;;;12.66;84.51;100307.96;1716820;83;21224;-63
2021/06/02 06:51:52;;;;;;;10.00;3.92;;;;;;;12.70;84.61;100304.64;1716927;83;21752;-62
2021/06/02 06:55:03;;;;;;;5.40;3.80;;;;;;;12.77;84.47;100306.96;1678622;83;21205;-62
2021/06/02 06:58:08;;;;;;;5.17;3.80;;;;;;;12.86;84.54;100309.92;1670473;84;21260;-65
2021/06/02 07:01:14;;;;;;;5.42;3.87;;;;;;;12.90;84.04;100322.25;1715506;82;21359;-64
2021/06/02 07:04:20;;;;;;;6.00;4.12;;;;;;;12.87;84.00;100312.16;1708159;84;21394;-62
2021/06/02 07:07:28;;;;;;;7.83;3.72;;;;;;;12.90;84.02;100320.01;1677491;84;21234;-62
2021/06/02 07:10:38;;;;;;;7.95;4.35;;;;;;;12.93;84.04;100321.86;1679141;82;21251;-62
2021/06/02 07:14:00;;;;;;;4.92;3.35;;;;;;;12.94;84.07;100331.80;1676687;85;21204;-61
2021/06/02 07:17:08;;;;;;;6.47;3.80;;;;;;;12.98;83.97;100322.14;1687766;84;21307;-61
2021/06/02 07:20:16;;;;;;;7.17;3.98;;;;;;;12.98;83.71;100323.52;1704809;84;21204;-61
2021/06/02 07:23:22;;;;;;;6.62;3.72;;;;;;;12.95;83.79;100329.39;1705624;83;21286;-65
2021/06/02 07:26:27;;;;;;;6.05;3.92;;;;;;;12.92;83.94;100335.25;1689641;83;21201;-62
2021/06/02 07:29:34;;;;;;;6.47;3.83;;;;;;;12.95;84.11;100335.41;1704881;84;21216;-60
2021/06/02 07:32:40;;;;;;;6.20;4.37;;;;;;;12.96;84.39;100345.34;1705446;83;21669;-64
2021/06/02 07:35:47;;;;;;;6.53;4.35;;;;;;;13.02;84.53;100336.35;1705704;83;21354;-64
2021/06/02 07:38:54;;;;;;;7.67;4.47;;;;;;;13.06;84.35;100337.69;1701803;83;21273;-66
2021/06/02 07:41:59;;;;;;;5.42;3.72;;;;;;;13.10;84.46;100323.36;1675996;85;21451;-63
2021/06/02 07:45:05;;;;;;;7.12;4.20;;;;;;;13.13;84.30;100332.59;1677848;84;21516;-62
2021/06/02 07:48:13;;;;;;;7.70;3.50;;;;;;;13.12;84.40;100329.52;1692627;84;21344;-61
2021/06/02 07:51:18;;;;;;;8.60;3.87;;;;;;;13.15;84.64;100327.77;1705915;83;21804;-60
2021/06/02 07:54:24;;;;;;;6.08;3.80;;;;;;;13.18;84.83;100328.75;1705722;83;21358;-63
2021/06/02 07:57:29;;;;;;;7.47;3.52;;;;;;;13.22;85.00;100320.42;1690686;83;21263;-60
2021/06/02 08:00:35;;;;;;;8.25;4.35;;;;;;;13.32;85.22;100327.84;1677023;85;21336;-57
2021/06/02 08:03:42;;;;;;;7.75;4.40;;;;;;;13.42;85.23;100318.77;1676978;85;21232;-59
2021/06/02 08:06:47;;;;;;;8.03;4.55;;;;;;;13.54;85.38;100320.48;1680775;81;21366;-59
2021/06/02 08:09:53;;;;;;;6.85;3.95;;;;;;;13.64;85.10;100325.10;1684127;85;21254;-61
2021/06/02 08:13:01;;;;;;;7.62;4.20;;;;;;;13.67;84.93;100329.38;1684729;84;21400;-56
2021/06/02 08:16:08;;;;;;;7.47;4.55;;;;;;;13.66;84.82;100331.27;1684098;85;21354;-56
2021/06/02 08:19:14;;;;;;;7.83;4.78;;;;;;;13.71;84.97;100334.80;1684326;85;21361;-57
2021/06/02 08:22:21;;;;;;;7.62;4.42;;;;;;;13.84;85.01;100330.80;1684288;84;21215;-58
2021/06/02 08:25:26;;;;;;;9.73;4.95;;;;;;;13.92;84.58;100334.25;1668989;84;21246;-59
2021/06/02 08:28:31;;;;;;;6.67;4.37;;;;;;;14.00;84.47;100336.86;1684093;84;21791;-60
2021/06/02 08:31:37;;;;;;;7.45;4.70;;;;;;;13.99;84.49;100337.06;1683597;84;21226;-61
2021/06/02 08:34:45;;;;;;;7.20;5.12;;;;;;;13.95;84.57;100339.38;1683520;84;21467;-60
2021/06/02 08:37:50;;;;;;;6.50;4.55;;;;;;;13.90;84.85;100336.88;1683768;84;21885;-59
2021/06/02 08:40:55;;;;;;;8.55;4.95;;;;;;;13.87;84.84;100353.80;1699013;84;21939;-60
2021/06/02 08:44:00;;;;;;;7.05;4.67;;;;;;;13.81;85.02;100352.67;1711364;83;21236;-60
2021/06/02 08:47:09;;;;;;;6.45;4.33;;;;;;;13.74;85.49;100345.41;1711658;83;21273;-61
2021/06/02 08:50:19;;;;;;;8.23;4.90;;;;;;;13.70;85.92;100355.12;1711550;84;21268;-60
2021/06/02 08:53:26;;;;;;;10.23;5.50;;;;;;;13.59;86.33;100357.02;1711725;83;21190;-62
2021/06/02 08:56:30;;;;;;;7.03;4.83;;;;;;;13.48;86.77;100356.47;1711693;83;21403;-59
2021/06/02 08:59:36;;;;;;;6.47;4.53;;;;;;;13.43;87.29;100364.45;1693311;83;21271;-61
2021/06/02 09:02:42;;;;;;;8.15;5.30;;;;;;;13.38;87.31;100375.17;1687304;82;21243;-61
2021/06/02 09:05:47;;;;;;;13.28;4.95;;;;;;;13.37;87.37;100371.25;1700145;82;21629;-56
2021/06/02 09:08:55;;;;;;;8.53;5.15;;;;;;;13.40;87.52;100375.84;1713102;81;21227;-59
2021/06/02 09:12:00;;;;;;;9.83;5.17;;;;;;;13.46;87.56;100370.94;1712192;83;21896;-59
2021/06/02 09:15:19;;;;;;;9.23;5.20;;;;;;;13.54;87.67;100370.81;1712728;82;21236;-59
2021/06/02 09:18:28;;;;;;;7.70;4.70;;;;;;;13.61;87.70;100376.39;1714314;82;21216;-59
2021/06/02 09:21:38;;;;;;;8.38;5.30;;;;;;;13.67;87.68;100370.64;1712672;83;21204;-56
2021/06/02 09:25:03;;;;;;;8.25;4.92;;;;;;;13.66;87.60;100378.03;1712994;83;21446;-61
2021/06/02 09:28:09;;;;;;;7.92;4.78;;;;;;;13.68;87.84;100382.83;1751522;81;21184;-56
2021/06/02 09:31:35;;;;;;;6.40;4.70;;;;;;;13.75;88.14;100373.27;1752202;80;21267;-56
2021/06/02 09:34:41;;;;;;;8.98;5.17;;;;;;;13.79;88.10;100378.69;1751195;82;21255;-59
2021/06/02 09:38:05;;;;;;;7.53;4.90;;;;;;;13.80;88.20;100374.88;1690839;85;21378;-59
2021/06/02 09:41:11;;;;;;;10.05;5.75;;;;;;;13.84;88.55;100367.95;1683470;84;21769;-58
2021/06/02 09:44:31;;;;;;;10.30;5.45;;;;;;;13.90;88.40;100379.02;1683634;84;21272;-58
2021/06/02 09:47:50;;;;;;;8.65;5.03;;;;;;;13.92;88.44;100370.56;1728488;82;21176;-61
2021/06/02 09:50:55;;;;;;;7.42;4.87;;;;;;;14.02;88.45;100380.70;1737581;82;21232;-61
2021/06/02 09:54:04;;;;;;;7.55;5.55;;;;;;;14.05;88.30;100386.66;1720110;82;21256;-59
2021/06/02 09:57:11;;;;;;;8.85;5.17;;;;;;;14.10;88.31;100382.80;1684594;84;21373;-59
2021/06/02 10:00:20;;;;;;;6.75;5.00;;;;;;;14.20;88.11;100376.95;1650981;85;21224;-61
2021/06/02 10:03:34;;;;;;;8.83;4.70;;;;;;;14.31;88.14;100387.45;1683922;85;21228;-60
2021/06/02 10:06:35;;;;;;;8.30;5.58;;;;;;;14.44;87.99;100380.16;1684373;85;21594;-62
2021/06/02 10:09:43;;;;;;;9.45;4.87;;;;;;;14.54;87.66;100379.80;1659421;83;21288;-60
2021/06/02 10:13:16;;;;;;;8.28;5.60;;;;;;;14.55;86.84;100379.60;1690803;85;21739;-60
2021/06/02 10:16:44;;;;;;;9.30;5.35;;;;;;;14.52;86.63;100385.52;1695816;83;21204;-61
2021/06/02 10:19:53;;;;;;;9.25;6.42;;;;;;;14.56;86.71;100383.19;1681196;83;21247;-56
2021/06/02 10:23:04;;;;;;;13.05;6.15;;;;;;;14.65;86.67;100379.24;1690376;85;21247;-55
2021/06/02 10:26:15;;;;;;;10.95;6.42;;;;;;;14.76;86.02;100384.19;1718527;82;21377;-57
2021/06/02 10:29:19;;;;;;;7.75;5.58;;;;;;;14.88;85.68;100386.69;1719049;82;21824;-55
2021/06/02 10:32:24;;;;;;;9.53;5.65;;;;;;;15.02;84.90;100387.08;1713809;82;21261;-56
2021/06/02 10:35:29;;;;;;;10.48;5.35;;;;;;;15.11;84.50;100387.77;1701143;82;21279;-57
2021/06/02 10:38:38;;;;;;;14.03;5.08;;;;;;;15.21;83.83;100385.45;1690326;84;21203;-56
2021/06/02 10:41:58;;;;;;;9.38;5.17;;;;;;;15.27;83.28;100391.00;1690403;85;21732;-55
2021/06/02 10:45:08;;;;;;;8.50;5.42;;;;;;;15.24;82.70;100383.70;1707657;82;21317;-55
2021/06/02 10:48:15;;;;;;;9.05;4.97;;;;;;;15.27;82.74;100388.25;1720033;83;21342;-56
2021/06/02 10:51:43;;;;;;;9.50;5.60;;;;;;;15.34;82.64;100387.76;1720139;83;21760;-56
2021/06/02 10:54:50;;;;;;;13.55;5.47;;;;;;;15.39;82.48;100388.55;1710000;82;21226;-56
2021/06/02 10:58:24;;;;;;;9.63;5.78;;;;;;;15.44;82.09;100391.02;1719694;82;21863;-54
2021/06/02 11:01:31;;;;;;;11.43;6.55;;;;;;;15.46;82.15;100387.50;1691501;84;21259;-56
2021/06/02 11:04:37;;;;;;;8.35;6.05;;;;;;;15.56;81.96;100390.73;1711056;82;21716;-56
2021/06/02 11:07:43;;;;;;;16.12;6.28;;;;;;;15.67;81.50;100394.78;1719127;82;21199;-56
2021/06/02 11:10:50;;;;;;;8.70;5.62;;;;;;;15.80;81.38;100397.58;1712570;82;21820;-56
2021/06/02 11:14:26;;;;;;;9.25;6.15;;;;;;;15.93;81.31;100395.71;1707313;81;21261;-55
2021/06/02 11:17:32;;;;;;;11.45;5.53;;;;;;;16.07;80.66;100402.09;1735413;82;21292;-56
2021/06/02 11:20:51;;;;;;;10.58;5.78;;;;;;;16.17;79.81;100408.89;1737085;82;21213;-55
2021/06/02 11:23:57;;;;;;;9.20;5.25;;;;;;;16.19;78.96;100414.20;1736239;82;21217;-58
2021/06/02 11:27:23;;;;;;;8.15;5.05;;;;;;;16.18;78.41;100412.52;1707309;83;21287;-60
2021/06/02 11:30:30;;;;;;;7.50;4.50;;;;;;;16.16;78.29;100415.48;1734440;82;21268;-58
2021/06/02 11:33:40;;;;;;;11.05;4.78;;;;;;;16.13;78.03;100407.63;1736648;82;21663;-57
2021/06/02 11:37:06;;;;;;;7.50;4.90;;;;;;;16.10;78.20;100406.67;1736929;82;21264;-59
2021/06/02 11:40:17;;;;;;;8.03;4.80;;;;;;;16.12;78.43;100422.51;1730941;82;21254;-58
2021/06/02 11:43:22;;;;;;;8.38;4.60;;;;;;;16.17;78.23;100419.94;1728639;82;21244;-57
2021/06/02 11:46:27;;;;;;;8.45;4.65;;;;;;;16.32;78.45;100421.13;1736423;82;21216;-58
2021/06/02 11:49:43;;;;;;;7.80;5.60;;;;;;;16.36;78.00;100421.03;1736556;81;21272;-58
2021/06/02 11:52:52;;;;;;;8.60;5.58;;;;;;;16.44;78.46;100419.44;1732131;82;21236;-58
2021/06/02 11:56:01;;;;;;;7.17;4.85;;;;;;;16.55;78.82;100420.73;1732786;81;21272;-58
2021/06/02 11:59:10;;;;;;;7.35;5.15;;;;;;;16.63;79.02;100420.52;1714750;83;21847;-58
2021/06/02 12:02:21;;;;;;;10.10;5.92;;;;;;;16.66;79.42;100420.09;1707109;83;21769;-58
2021/06/02 12:05:35;;;;;;;7.67;5.33;;;;;;;16.73;79.58;100410.71;1707212;84;21650;-58
2021/06/02 12:08:42;;;;;;;10.03;5.10;;;;;;;16.79;79.61;100418.70;1706603;84;21558;-60
2021/06/02 12:11:48;;;;;;;9.48;4.72;;;;;;;16.89;79.82;100417.18;1682237;82;21231;-57
2021/06/02 12:15:05;;;;;;;7.00;5.15;;;;;;;16.90;79.86;100410.61;1677534;84;21323;-58
2021/06/02 12:18:10;;;;;;;7.72;4.87;;;;;;;16.92;80.31;100409.00;1685107;82;21216;-61
2021/06/02 12:21:38;;;;;;;9.33;4.90;;;;;;;16.97;80.54;100406.41;1683697;85;21216;-59
2021/06/02 12:24:44;;;;;;;7.72;4.70;;;;;;;17.06;80.26;100406.52;1694344;82;21851;-60
2021/06/02 12:27:57;;;;;;;6.90;4.10;;;;;;;17.12;79.15;100404.26;1683817;85;21184;-60
2021/06/02 12:31:02;;;;;;;6.33;4.40;;;;;;;17.20;78.48;100398.48;1737449;82;21264;-59
2021/06/02 12:34:21;;;;;;;11.43;4.42;;;;;;;17.30;77.22;100398.33;1724718;82;21200;-56
2021/06/02 12:37:26;;;;;;;9.55;5.15;;;;;;;17.40;76.90;100403.40;1710095;82;21339;-57
2021/06/02 12:40:32;;;;;;;8.65;5.05;;;;;;;17.50;76.21;100399.15;1687032;84;21280;-58
2021/06/02 12:43:45;;;;;;;5.78;4.15;;;;;;;17.57;75.71;100394.94;1712734;82;21192;-59
2021/06/02 12:47:14;;;;;;;7.37;4.28;;;;;;;17.63;75.16;100396.84;1701500;83;21189;-59
2021/06/02 12:50:24;;;;;;;10.00;4.00;;;;;;;17.66;74.96;100399.17;1689793;82;21760;-58
2021/06/02 12:53:29;;;;;;;9.80;4.45;;;;;;;17.67;74.74;100396.70;1709367;82;21207;-59
2021/06/02 12:56:36;;;;;;;5.60;3.60;;;;;;;17.72;74.94;100403.81;1707461;82;21196;-60
2021/06/02 12:59:42;;;;;;;7.80;4.08;;;;;;;17.77;74.79;100386.00;1706787;82;21228;-58
2021/06/02 13:02:48;;;;;;;9.08;4.05;;;;;;;17.84;74.24;100395.10;1694688;82;21231;-60
2021/06/02 13:05:55;;;;;;;8.58;3.85;;;;;;;17.92;74.17;100395.40;1711871;83;21200;-59
2021/06/02 13:09:01;;;;;;;8.15;3.45;;;;;;;17.98;74.14;100388.44;1724564;82;21199;-57
2021/06/02 13:12:06;;;;;;;10.53;3.35;;;;;;;18.04;73.39;100383.91;1738394;78;21222;-59
2021/06/02 13:15:38;;;;;;;7.58;3.55;;;;;;;18.07;73.01;100384.84;1737890;82;21716;-60
2021/06/02 13:18:44;;;;;;;7.10;3.20;;;;;;;18.09;72.98;100391.88;1738031;82;21168;-59
2021/06/02 13:22:00;;;;;;;10.23;3.50;;;;;;;18.07;72.79;100395.92;1716212;82;21220;-59
2021/06/02 13:25:09;;;;;;;5.85;3.00;;;;;;;18.03;73.14;100386.37;1710501;82;21203;-58
2021/06/02 13:28:16;;;;;;;5.97;3.02;;;;;;;18.01;72.75;100394.91;1683820;85;21215;-57
2021/06/02 13:31:22;;;;;;;8.33;3.37;;;;;;;17.96;72.61;100400.27;1683735;85;21231;-56
2021/06/02 13:34:43;;;;;;;7.90;3.50;;;;;;;17.91;72.54;100398.70;1683114;84;21240;-55
2021/06/02 13:37:51;;;;;;;5.75;3.27;;;;;;;17.89;72.12;100398.92;1683752;85;21237;-55
2021/06/02 13:41:00;;;;;;;10.03;3.35;;;;;;;17.92;70.84;100395.40;1683798;84;21291;-58
2021/06/02 13:44:11;;;;;;;7.45;3.27;;;;;;;17.91;70.48;100407.00;1683914;85;21263;-55
2021/06/02 13:47:19;;;;;;;4.58;2.72;;;;;;;17.93;69.85;100402.63;1684494;82;21338;-56
2021/06/02 13:50:24;;;;;;;8.80;3.10;;;;;;;17.93;69.25;100404.01;1683642;85;21223;-56
2021/06/02 13:53:31;;;;;;;7.25;3.08;;;;;;;17.91;69.15;100400.08;1692180;84;21203;-57
2021/06/02 13:56:38;;;;;;;7.62;2.67;;;;;;;17.95;68.80;100401.88;1712273;84;21744;-57
2021/06/02 13:59:57;;;;;;;4.65;3.08;;;;;;;17.95;68.79;100395.78;1713890;82;21260;-58
2021/06/02 14:03:02;;;;;;;4.50;3.00;;;;;;;17.95;67.93;100396.33;1712351;84;21200;-56
2021/06/02 14:06:08;;;;;;;7.05;2.52;;;;;;;17.92;67.90;100401.77;1712791;82;21236;-58
2021/06/02 14:09:15;;;;;;;4.67;2.60;;;;;;;17.93;67.81;100400.16;1713130;82;21228;-55
2021/06/02 14:12:21;;;;;;;7.10;3.20;;;;;;;17.97;68.11;100392.25;1712487;84;21303;-58
2021/06/02 14:15:27;;;;;;;9.15;2.65;;;;;;;17.97;67.31;100397.80;1718822;82;21264;-58
2021/06/02 14:18:33;;;;;;;11.40;3.55;;;;;;;17.99;67.66;100388.73;1720792;83;21282;-57
2021/06/02 14:21:41;;;;;;;6.62;3.35;;;;;;;17.98;67.67;100389.81;1720483;83;21204;-54
2021/06/02 14:24:47;;;;;;;6.15;2.80;;;;;;;17.97;67.34;100393.64;1720823;83;22014;-58
2021/06/02 14:27:54;;;;;;;11.00;2.92;;;;;;;17.98;67.63;100390.34;1710850;83;21334;-58
2021/06/02 14:31:01;;;;;;;4.00;2.45;;;;;;;17.99;67.47;100385.97;1692143;84;21473;-59
2021/06/02 14:34:07;;;;;;;4.92;2.58;;;;;;;17.99;67.06;100395.66;1691510;85;21732;-57
2021/06/02 14:37:17;;;;;;;11.08;2.98;;;;;;;18.00;66.71;100399.29;1691733;85;21859;-57
2021/06/02 14:40:23;;;;;;;6.33;2.35;;;;;;;18.01;66.76;100397.68;1691811;83;21263;-58
2021/06/02 14:43:29;;;;;;;11.45;3.05;;;;;;;18.03;66.59;100390.53;1691884;84;22054;-59
2021/06/02 14:46:35;;;;;;;5.75;2.60;;;;;;;18.01;66.57;100398.20;1705055;82;21207;-57
2021/06/02 14:49:42;;;;;;;5.95;2.37;;;;;;;18.00;66.53;100398.73;1721251;83;21650;-58
2021/06/02 14:52:49;;;;;;;3.80;2.80;;;;;;;18.01;66.48;100399.59;1720790;82;21194;-57
2021/06/02 14:55:55;;;;;;;5.08;2.98;;;;;;;17.98;66.61;100402.81;1720433;83;21385;-59
2021/06/02 14:59:02;;;;;;;5.42;2.72;;;;;;;17.93;66.75;100407.64;1720461;82;21267;-56
2021/06/02 15:02:10;;;;;;;7.08;2.75;;;;;;;17.90;66.93;100412.24;1720640;83;21351;-58
2021/06/02 15:05:17;;;;;;;4.00;2.65;;;;;;;17.85;66.97;100412.88;1720141;83;22109;-59
2021/06/02 15:08:23;;;;;;;9.65;3.20;;;;;;;17.82;67.37;100409.73;1720273;83;21212;-59
2021/06/02 15:11:29;;;;;;;4.65;2.67;;;;;;;17.76;67.01;100423.05;1720567;82;21239;-57
2021/06/02 15:14:36;;;;;;;10.08;3.02;;;;;;;17.72;67.37;100412.12;1718850;80;21231;-57
2021/06/02 15:17:41;;;;;;;6.17;3.22;;;;;;;17.67;67.41;100425.77;1712084;82;21752;-57